createdAt,value
2023-05-14T00:00:46.371Z,14.231262
2023-05-14T00:01:56.118Z,14.221191
2023-05-14T00:03:03.834Z,14.251404
2023-05-14T00:04:13.447Z,14.281616
2023-05-14T00:05:23.118Z,14.261475
2023-05-14T00:06:32.835Z,14.221191
2023-05-14T00:07:42.522Z,14.231262
2023-05-14T00:08:52.148Z,14.281616
2023-05-14T00:10:00.794Z,14.20105
2023-05-14T00:11:10.464Z,14.150696
2023-05-14T00:12:19.139Z,14.20105
2023-05-14T00:13:28.763Z,14.261475
2023-05-14T00:14:37.430Z,14.291687
2023-05-14T00:15:45.121Z,14.291687
2023-05-14T00:16:54.777Z,14.321899
2023-05-14T00:18:04.448Z,14.301758
2023-05-14T00:19:13.134Z,14.291687
2023-05-14T00:20:22.991Z,14.261475
2023-05-14T00:21:31.434Z,14.251404
2023-05-14T00:22:40.109Z,14.291687
2023-05-14T00:23:49.756Z,14.291687
2023-05-14T00:24:58.420Z,14.301758
2023-05-14T00:26:08.131Z,14.352112
2023-05-14T00:27:16.801Z,14.352112
2023-05-14T00:28:26.491Z,14.402466
2023-05-14T00:29:36.187Z,14.402466
2023-05-14T00:30:45.884Z,14.251404
2023-05-14T00:31:54.581Z,14.231262
2023-05-14T00:33:04.250Z,14.251404
2023-05-14T00:34:12.959Z,14.20105
2023-05-14T00:35:21.664Z,14.221191
2023-05-14T00:36:31.323Z,14.20105
2023-05-14T00:37:40.987Z,14.261475
2023-05-14T00:38:50.668Z,14.140625
2023-05-14T00:39:59.397Z,14.221191
2023-05-14T00:41:08.039Z,14.221191
2023-05-14T00:42:17.687Z,14.110413
2023-05-14T00:43:27.337Z,14.150696
2023-05-14T00:44:37.090Z,14.20105
2023-05-14T00:45:46.766Z,14.251404
2023-05-14T00:46:55.478Z,14.231262
2023-05-14T00:48:05.112Z,14.281616
2023-05-14T00:49:14.813Z,14.301758
2023-05-14T00:50:23.811Z,14.261475
2023-05-14T00:51:33.125Z,14.321899
2023-05-14T00:52:40.774Z,14.352112
2023-05-14T00:53:50.453Z,14.291687
2023-05-14T00:54:59.132Z,14.321899
2023-05-14T00:56:07.794Z,14.33197
2023-05-14T00:57:17.519Z,14.372253
2023-05-14T00:58:25.239Z,14.362183
2023-05-14T00:59:33.881Z,14.362183
2023-05-14T01:00:43.541Z,14.33197
2023-05-14T01:01:52.171Z,14.291687
2023-05-14T01:03:01.985Z,14.180908
2023-05-14T01:04:11.562Z,14.20105
2023-05-14T01:05:20.252Z,14.231262
2023-05-14T01:06:29.892Z,14.301758
2023-05-14T01:07:39.611Z,14.352112
2023-05-14T01:08:49.273Z,14.120483
2023-05-14T01:09:58.941Z,14.070129
2023-05-14T01:11:06.616Z,14.049988
2023-05-14T01:12:16.283Z,14.070129
2023-05-14T01:13:25.942Z,14.150696
2023-05-14T01:14:35.622Z,14.180908
2023-05-14T01:15:45.352Z,14.120483
2023-05-14T01:16:54.075Z,14.150696
2023-05-14T01:18:03.729Z,14.140625
2023-05-14T01:19:12.353Z,14.20105
2023-05-14T01:20:22.246Z,14.251404
2023-05-14T01:21:31.775Z,14.281616
2023-05-14T01:22:40.438Z,14.251404
2023-05-14T01:23:50.109Z,14.281616
2023-05-14T01:24:58.768Z,14.291687
2023-05-14T01:26:06.445Z,14.261475
2023-05-14T01:27:16.151Z,14.251404
2023-05-14T01:28:24.788Z,14.281616
2023-05-14T01:29:34.593Z,14.281616
2023-05-14T01:30:44.237Z,14.20105
2023-05-14T01:31:51.891Z,14.180908
2023-05-14T01:33:01.591Z,14.049988
2023-05-14T01:34:11.244Z,14.070129
2023-05-14T01:35:20.924Z,14.110413
2023-05-14T01:36:30.579Z,14.100342
2023-05-14T01:37:40.226Z,14.110413
2023-05-14T01:38:48.883Z,14.110413
2023-05-14T01:39:58.583Z,14.120483
2023-05-14T01:41:08.208Z,13.959351
2023-05-14T01:42:17.864Z,13.959351
2023-05-14T01:43:26.588Z,13.959351
2023-05-14T01:44:35.232Z,13.969421
2023-05-14T01:45:43.979Z,13.989563
2023-05-14T01:46:52.587Z,13.959351
2023-05-14T01:48:01.306Z,14.039917
2023-05-14T01:49:10.941Z,13.969421
2023-05-14T01:50:19.589Z,13.848572
2023-05-14T01:51:29.235Z,13.737793
2023-05-14T01:52:37.884Z,13.788147
2023-05-14T01:53:45.582Z,13.848572
2023-05-14T01:54:55.243Z,13.778076
2023-05-14T01:56:02.880Z,13.858643
2023-05-14T01:57:12.585Z,13.858643
2023-05-14T01:58:22.276Z,13.627014
2023-05-14T01:59:29.943Z,13.69751
2023-05-14T02:00:39.587Z,13.69751
2023-05-14T02:01:48.343Z,13.747864
2023-05-14T02:02:56.957Z,13.778076
2023-05-14T02:04:06.589Z,13.707581
2023-05-14T02:05:14.319Z,13.768005
2023-05-14T02:06:23.031Z,13.788147
2023-05-14T02:07:32.687Z,13.778076
2023-05-14T02:08:41.339Z,13.768005
2023-05-14T02:09:51.006Z,13.778076
2023-05-14T02:10:59.672Z,13.747864
2023-05-14T02:12:09.385Z,13.808289
2023-05-14T02:13:19.042Z,13.868713
2023-05-14T02:14:26.678Z,13.888855
2023-05-14T02:15:36.407Z,13.858643
2023-05-14T02:16:46.063Z,13.848572
2023-05-14T02:17:53.742Z,13.858643
2023-05-14T02:19:02.402Z,13.868713
2023-05-14T02:20:11.049Z,13.94928
2023-05-14T02:21:19.734Z,13.778076
2023-05-14T02:22:29.426Z,13.677368
2023-05-14T02:23:41.783Z,13.677368
2023-05-14T02:24:46.757Z,13.717651
2023-05-14T02:25:56.465Z,13.747864
2023-05-14T02:27:04.135Z,13.647156
2023-05-14T02:28:13.802Z,13.616943
2023-05-14T02:29:22.447Z,13.566589
2023-05-14T02:30:31.189Z,13.486023
2023-05-14T02:31:40.902Z,13.496094
2023-05-14T02:32:50.551Z,13.455811
2023-05-14T02:34:00.181Z,13.415527
2023-05-14T02:35:09.848Z,13.345032
2023-05-14T02:36:19.600Z,13.435669
2023-05-14T02:37:29.264Z,13.405457
2023-05-14T02:38:38.915Z,13.465881
2023-05-14T02:39:48.566Z,13.566589
2023-05-14T02:40:58.278Z,13.415527
2023-05-14T02:42:07.948Z,13.526306
2023-05-14T02:43:17.594Z,13.616943
2023-05-14T02:44:26.261Z,13.516235
2023-05-14T02:45:33.909Z,13.516235
2023-05-14T02:46:43.698Z,13.627014
2023-05-14T02:47:53.232Z,13.516235
2023-05-14T02:49:01.889Z,13.496094
2023-05-14T02:50:11.587Z,13.435669
2023-05-14T02:51:20.243Z,13.405457
2023-05-14T02:52:28.887Z,13.616943
2023-05-14T02:53:38.548Z,13.707581
2023-05-14T02:54:47.249Z,13.667297
2023-05-14T02:55:56.931Z,13.596802
2023-05-14T02:57:06.624Z,13.69751
2023-05-14T02:58:15.333Z,13.526306
2023-05-14T02:59:26.007Z,13.496094
2023-05-14T03:00:34.697Z,13.586731
2023-05-14T03:01:43.324Z,13.536377
2023-05-14T03:02:53.168Z,13.586731
2023-05-14T03:04:00.656Z,13.647156
2023-05-14T03:05:10.312Z,13.69751
2023-05-14T03:06:20.952Z,13.677368
2023-05-14T03:07:29.633Z,13.707581
2023-05-14T03:08:39.329Z,13.647156
2023-05-14T03:09:46.998Z,13.677368
2023-05-14T03:10:56.670Z,13.677368
2023-05-14T03:12:06.316Z,13.647156
2023-05-14T03:13:15.047Z,13.455811
2023-05-14T03:14:24.710Z,13.415527
2023-05-14T03:15:33.372Z,13.375244
2023-05-14T03:16:43.023Z,13.375244
2023-05-14T03:17:51.794Z,13.415527
2023-05-14T03:18:59.530Z,13.516235
2023-05-14T03:20:09.059Z,13.516235
2023-05-14T03:21:18.729Z,13.435669
2023-05-14T03:22:27.371Z,13.455811
2023-05-14T03:23:37.024Z,13.536377
2023-05-14T03:24:46.666Z,13.556519
2023-05-14T03:25:56.327Z,13.455811
2023-05-14T03:27:06.033Z,13.516235
2023-05-14T03:28:14.696Z,13.526306
2023-05-14T03:29:24.357Z,13.465881
2023-05-14T03:30:33.090Z,13.516235
2023-05-14T03:31:42.738Z,13.616943
2023-05-14T03:32:52.458Z,13.677368
2023-05-14T03:34:01.099Z,13.677368
2023-05-14T03:35:10.777Z,13.647156
2023-05-14T03:36:19.392Z,13.667297
2023-05-14T03:37:27.052Z,13.526306
2023-05-14T03:38:36.727Z,13.566589
2023-05-14T03:39:45.372Z,13.516235
2023-05-14T03:40:54.064Z,13.486023
2023-05-14T03:42:04.764Z,13.526306
2023-05-14T03:43:13.422Z,13.566589
2023-05-14T03:44:23.065Z,13.616943
2023-05-14T03:45:32.747Z,13.627014
2023-05-14T03:46:42.450Z,13.667297
2023-05-14T03:47:51.150Z,13.667297
2023-05-14T03:49:00.909Z,13.677368
2023-05-14T03:50:10.453Z,13.586731
2023-05-14T03:51:20.177Z,13.566589
2023-05-14T03:52:28.819Z,13.596802
2023-05-14T03:53:38.464Z,13.616943
2023-05-14T03:54:48.134Z,13.616943
2023-05-14T03:55:56.838Z,13.586731
2023-05-14T03:57:06.479Z,13.486023
2023-05-14T03:58:14.293Z,13.516235
2023-05-14T03:59:23.804Z,13.455811
2023-05-14T04:00:33.509Z,13.415527
2023-05-14T04:01:42.196Z,13.435669
2023-05-14T04:02:51.893Z,13.486023
2023-05-14T04:04:01.603Z,13.385315
2023-05-14T04:05:11.237Z,13.405457
2023-05-14T04:06:20.849Z,13.415527
2023-05-14T04:07:29.555Z,13.415527
2023-05-14T04:08:38.157Z,13.526306
2023-05-14T04:09:47.837Z,13.435669
2023-05-14T04:10:57.488Z,13.486023
2023-05-14T04:12:07.124Z,13.486023
2023-05-14T04:13:16.771Z,13.586731
2023-05-14T04:14:26.497Z,13.627014
2023-05-14T04:15:36.224Z,13.707581
2023-05-14T04:16:43.810Z,13.768005
2023-05-14T04:17:53.497Z,13.768005
2023-05-14T04:19:03.152Z,13.717651
2023-05-14T04:20:12.802Z,13.596802
2023-05-14T04:21:21.462Z,13.667297
2023-05-14T04:22:30.095Z,13.69751
2023-05-14T04:23:37.837Z,13.717651
2023-05-14T04:24:47.479Z,13.566589
2023-05-14T04:25:56.129Z,13.556519
2023-05-14T04:27:05.803Z,13.536377
2023-05-14T04:28:15.488Z,13.536377
2023-05-14T04:29:23.164Z,13.647156
2023-05-14T04:30:32.825Z,13.516235
2023-05-14T04:31:41.488Z,13.526306
2023-05-14T04:32:50.186Z,13.556519
2023-05-14T04:33:59.879Z,13.496094
2023-05-14T04:35:07.532Z,13.496094
2023-05-14T04:36:17.195Z,13.556519
2023-05-14T04:37:26.875Z,13.596802
2023-05-14T04:38:34.581Z,13.627014
2023-05-14T04:39:44.283Z,13.747864
2023-05-14T04:40:53.951Z,13.717651
2023-05-14T04:42:02.619Z,13.788147
2023-05-14T04:43:12.319Z,13.888855
2023-05-14T04:44:20.982Z,13.888855
2023-05-14T04:45:31.694Z,13.959351
2023-05-14T04:46:40.278Z,13.999634
2023-05-14T04:47:47.966Z,14.120483
2023-05-14T04:48:57.605Z,14.140625
2023-05-14T04:50:06.281Z,14.029846
2023-05-14T04:51:14.926Z,14.170837
2023-05-14T04:52:24.585Z,14.170837
2023-05-14T04:53:33.255Z,14.150696
2023-05-14T04:54:42.949Z,14.20105
2023-05-14T04:55:52.610Z,14.150696
2023-05-14T04:57:01.265Z,14.150696
2023-05-14T04:58:10.937Z,14.221191
2023-05-14T04:59:19.588Z,14.170837
2023-05-14T05:00:28.271Z,14.0802
2023-05-14T05:01:37.976Z,14.070129
2023-05-14T05:02:46.633Z,14.039917
2023-05-14T05:03:56.296Z,14.140625
2023-05-14T05:05:05.926Z,14.221191
2023-05-14T05:06:15.653Z,14.180908
2023-05-14T05:07:25.299Z,14.150696
2023-05-14T05:08:34.959Z,14.100342
2023-05-14T05:09:42.629Z,14.110413
2023-05-14T05:10:52.340Z,13.898926
2023-05-14T05:12:02.025Z,13.898926
2023-05-14T05:13:11.663Z,13.969421
2023-05-14T05:14:20.322Z,14.150696
2023-05-14T05:15:30.017Z,14.150696
2023-05-14T05:16:39.662Z,14.231262
2023-05-14T05:17:48.355Z,14.281616
2023-05-14T05:18:58.003Z,14.362183
2023-05-14T05:20:07.657Z,14.372253
2023-05-14T05:21:17.315Z,14.442749
2023-05-14T05:22:26.968Z,14.432678
2023-05-14T05:23:35.648Z,14.45282
2023-05-14T05:24:45.323Z,14.432678
2023-05-14T05:25:54.968Z,14.442749
2023-05-14T05:27:03.626Z,14.472961
2023-05-14T05:28:13.297Z,14.483032
2023-05-14T05:29:22.988Z,14.432678
2023-05-14T05:30:32.623Z,14.33197
2023-05-14T05:31:42.304Z,14.291687
2023-05-14T05:32:50.978Z,14.120483
2023-05-14T05:34:00.711Z,14.029846
2023-05-14T05:35:10.366Z,14.070129
2023-05-14T05:36:19.033Z,14.170837
2023-05-14T05:37:28.676Z,14.231262
2023-05-14T05:38:37.375Z,14.231262
2023-05-14T05:39:47.070Z,14.20105
2023-05-14T05:40:56.753Z,14.291687
2023-05-14T05:42:04.448Z,14.372253
2023-05-14T05:43:13.102Z,14.281616
2023-05-14T05:44:22.833Z,14.301758
2023-05-14T05:45:31.444Z,14.372253
2023-05-14T05:46:41.194Z,14.472961
2023-05-14T05:47:49.819Z,14.533386
2023-05-14T05:48:58.501Z,14.624023
2023-05-14T05:50:08.186Z,14.624023
2023-05-14T05:51:16.828Z,14.624023
2023-05-14T05:52:26.503Z,14.593811
2023-05-14T05:53:36.217Z,14.664307
2023-05-14T05:54:43.861Z,14.70459
2023-05-14T05:55:53.512Z,14.664307
2023-05-14T05:57:03.211Z,14.765015
2023-05-14T05:58:11.894Z,14.724731
2023-05-14T05:59:21.585Z,14.684448
2023-05-14T06:00:30.265Z,14.472961
2023-05-14T06:01:38.925Z,14.45282
2023-05-14T06:02:48.605Z,14.432678
2023-05-14T06:03:57.242Z,14.472961
2023-05-14T06:05:06.929Z,14.543457
2023-05-14T06:06:16.536Z,14.654236
2023-05-14T06:07:25.228Z,14.664307
2023-05-14T06:08:34.883Z,14.664307
2023-05-14T06:09:44.559Z,14.765015
2023-05-14T06:10:54.250Z,14.654236
2023-05-14T06:12:03.916Z,14.684448
2023-05-14T06:13:13.555Z,14.543457
2023-05-14T06:14:23.226Z,14.432678
2023-05-14T06:15:32.914Z,14.412537
2023-05-14T06:16:41.619Z,14.442749
2023-05-14T06:17:51.256Z,14.58374
2023-05-14T06:19:00.920Z,14.533386
2023-05-14T06:20:10.513Z,14.593811
2023-05-14T06:21:20.201Z,14.58374
2023-05-14T06:22:29.845Z,14.694519
2023-05-14T06:23:39.490Z,14.805298
2023-05-14T06:24:48.133Z,14.885864
2023-05-14T06:25:56.846Z,14.966431
2023-05-14T06:27:06.492Z,15.016785
2023-05-14T06:28:15.156Z,15.067139
2023-05-14T06:29:23.856Z,15.137634
2023-05-14T06:30:33.562Z,15.137634
2023-05-14T06:31:43.247Z,15.20813
2023-05-14T06:32:52.884Z,15.238342
2023-05-14T06:34:02.526Z,15.137634
2023-05-14T06:35:10.240Z,15.167847
2023-05-14T06:36:19.904Z,15.167847
2023-05-14T06:37:29.553Z,15.137634
2023-05-14T06:38:39.229Z,15.187988
2023-05-14T06:39:48.940Z,15.20813
2023-05-14T06:40:58.581Z,14.996643
2023-05-14T06:42:08.226Z,14.936218
2023-05-14T06:43:17.879Z,15.026855
2023-05-14T06:44:27.567Z,14.986572
2023-05-14T06:45:38.246Z,15.08728
2023-05-14T06:46:47.939Z,14.855652
2023-05-14T06:47:57.633Z,14.845581
2023-05-14T06:49:07.335Z,14.855652
2023-05-14T06:50:14.944Z,14.765015
2023-05-14T06:51:24.562Z,14.785156
2023-05-14T06:52:34.227Z,14.785156
2023-05-14T06:53:42.898Z,14.805298
2023-05-14T06:54:52.610Z,14.885864
2023-05-14T06:56:02.258Z,14.906006
2023-05-14T06:57:10.899Z,14.936218
2023-05-14T06:58:20.569Z,14.986572
2023-05-14T06:59:29.253Z,14.815369
2023-05-14T07:00:39.067Z,14.654236
2023-05-14T07:01:47.748Z,14.70459
2023-05-14T07:02:57.427Z,14.875793
2023-05-14T07:04:07.199Z,14.986572
2023-05-14T07:05:14.684Z,15.026855
2023-05-14T07:06:23.363Z,15.036926
2023-05-14T07:07:33.062Z,15.097351
2023-05-14T07:08:41.755Z,15.20813
2023-05-14T07:09:51.393Z,15.177917
2023-05-14T07:11:00.105Z,15.238342
2023-05-14T07:12:09.791Z,15.167847
2023-05-14T07:13:19.443Z,15.107422
2023-05-14T07:14:30.098Z,15.177917
2023-05-14T07:15:39.782Z,15.187988
2023-05-14T07:16:47.469Z,15.218201
2023-05-14T07:17:56.186Z,14.95636
2023-05-14T07:19:05.834Z,14.936218
2023-05-14T07:20:13.453Z,14.966431
2023-05-14T07:21:23.152Z,15.036926
2023-05-14T07:22:32.870Z,15.057068
2023-05-14T07:23:40.522Z,15.187988
2023-05-14T07:24:49.191Z,15.328979
2023-05-14T07:25:57.831Z,15.308838
2023-05-14T07:27:07.537Z,15.167847
2023-05-14T07:28:17.200Z,15.248413
2023-05-14T07:29:25.860Z,15.369263
2023-05-14T07:30:35.520Z,15.369263
2023-05-14T07:31:44.254Z,15.278625
2023-05-14T07:32:52.957Z,15.389404
2023-05-14T07:34:02.519Z,15.389404
2023-05-14T07:35:12.285Z,15.429688
2023-05-14T07:36:19.961Z,15.439758
2023-05-14T07:37:29.580Z,15.439758
2023-05-14T07:38:37.233Z,15.349121
2023-05-14T07:39:46.901Z,15.429688
2023-05-14T07:40:56.584Z,15.419617
2023-05-14T07:42:04.235Z,15.399475
2023-05-14T07:43:14.887Z,15.369263
2023-05-14T07:44:23.522Z,15.439758
2023-05-14T07:45:32.242Z,15.570679
2023-05-14T07:46:41.916Z,15.621033
2023-05-14T07:47:49.621Z,15.762024
2023-05-14T07:48:59.209Z,15.671387
2023-05-14T07:50:08.890Z,15.671387
2023-05-14T07:51:18.581Z,15.751953
2023-05-14T07:52:28.215Z,15.822449
2023-05-14T07:53:36.880Z,15.802307
2023-05-14T07:54:47.140Z,15.792236
2023-05-14T07:55:56.173Z,15.731812
2023-05-14T07:57:04.842Z,15.671387
2023-05-14T07:58:14.464Z,15.671387
2023-05-14T07:59:23.159Z,15.862732
2023-05-14T08:00:31.808Z,15.923157
2023-05-14T08:01:41.487Z,16.104431
2023-05-14T08:02:49.374Z,16.285706
2023-05-14T08:03:57.921Z,16.154785
2023-05-14T08:05:07.514Z,16.174927
2023-05-14T08:06:17.184Z,16.124573
2023-05-14T08:07:26.854Z,15.731812
2023-05-14T08:08:35.478Z,15.802307
2023-05-14T08:09:44.193Z,15.913086
2023-05-14T08:10:53.895Z,15.792236
2023-05-14T08:12:02.499Z,15.903015
2023-05-14T08:13:12.145Z,16.013794
2023-05-14T08:14:21.882Z,16.08429
2023-05-14T08:15:31.534Z,16.104431
2023-05-14T08:16:41.209Z,16.08429
2023-05-14T08:17:49.946Z,16.054077
2023-05-14T08:18:58.696Z,16.003723
2023-05-14T08:20:08.251Z,15.913086
2023-05-14T08:21:16.912Z,15.913086
2023-05-14T08:22:25.538Z,15.721741
2023-05-14T08:23:35.285Z,15.802307
2023-05-14T08:24:44.948Z,15.862732
2023-05-14T08:25:54.579Z,15.953369
2023-05-14T08:27:03.235Z,16.044006
2023-05-14T08:28:10.925Z,16.154785
2023-05-14T08:29:20.589Z,16.154785
2023-05-14T08:30:29.295Z,16.154785
2023-05-14T08:31:37.894Z,16.255493
2023-05-14T08:32:47.631Z,16.205139
2023-05-14T08:33:56.303Z,16.225281
2023-05-14T08:35:05.955Z,16.255493
2023-05-14T08:36:15.673Z,16.255493
2023-05-14T08:37:23.371Z,16.195068
2023-05-14T08:38:33.043Z,16.124573
2023-05-14T08:39:41.721Z,16.003723
2023-05-14T08:40:50.346Z,15.953369
2023-05-14T08:42:00.053Z,16.054077
2023-05-14T08:43:09.707Z,16.023865
2023-05-14T08:44:19.349Z,15.903015
2023-05-14T08:45:27.995Z,15.953369
2023-05-14T08:46:36.678Z,15.973511
2023-05-14T08:47:46.384Z,15.943298
2023-05-14T08:48:56.039Z,15.822449
2023-05-14T08:50:04.769Z,15.731812
2023-05-14T08:51:14.380Z,15.792236
2023-05-14T08:52:23.065Z,15.58075
2023-05-14T08:53:32.708Z,15.651245
2023-05-14T08:54:41.357Z,15.641174
2023-05-14T08:55:50.057Z,15.550537
2023-05-14T08:56:59.702Z,15.570679
2023-05-14T08:58:09.379Z,15.59082
2023-05-14T08:59:18.046Z,15.731812
2023-05-14T09:00:27.892Z,15.84259
2023-05-14T09:01:37.532Z,15.973511
2023-05-14T09:02:47.102Z,15.903015
2023-05-14T09:03:56.795Z,16.003723
2023-05-14T09:05:04.440Z,16.09436
2023-05-14T09:06:14.116Z,15.983582
2023-05-14T09:07:23.827Z,15.882874
2023-05-14T09:08:33.462Z,15.882874
2023-05-14T09:09:42.198Z,15.84259
2023-05-14T09:10:51.882Z,15.762024
2023-05-14T09:12:00.555Z,15.762024
2023-05-14T09:13:08.176Z,15.701599
2023-05-14T09:14:17.844Z,15.731812
2023-05-14T09:15:27.511Z,15.822449
2023-05-14T09:16:36.173Z,15.862732
2023-05-14T09:17:45.844Z,15.83252
2023-05-14T09:18:54.524Z,15.84259
2023-05-14T09:20:04.169Z,15.923157
2023-05-14T09:21:13.823Z,16.09436
2023-05-14T09:22:23.488Z,16.134644
2023-05-14T09:23:33.133Z,16.164856
2023-05-14T09:24:41.924Z,16.225281
2023-05-14T09:25:49.578Z,16.054077
2023-05-14T09:26:59.246Z,16.003723
2023-05-14T09:28:07.933Z,16.003723
2023-05-14T09:29:17.600Z,16.023865
2023-05-14T09:30:27.349Z,15.903015
2023-05-14T09:31:34.912Z,15.903015
2023-05-14T09:32:44.624Z,15.83252
2023-05-14T09:33:54.249Z,15.802307
2023-05-14T09:35:02.899Z,15.701599
2023-05-14T09:36:12.541Z,15.731812
2023-05-14T09:37:21.212Z,15.701599
2023-05-14T09:38:30.887Z,15.681458
2023-05-14T09:39:40.661Z,15.762024
2023-05-14T09:40:49.328Z,15.701599
2023-05-14T09:41:58.987Z,15.84259
2023-05-14T09:43:08.648Z,15.953369
2023-05-14T09:44:17.310Z,16.023865
2023-05-14T09:45:25.935Z,16.124573
2023-05-14T09:46:34.606Z,15.953369
2023-05-14T09:47:44.366Z,16.023865
2023-05-14T09:48:53.944Z,16.08429
2023-05-14T09:50:01.636Z,16.164856
2023-05-14T09:51:11.270Z,16.195068
2023-05-14T09:52:19.951Z,16.205139
2023-05-14T09:53:29.603Z,16.154785
2023-05-14T09:54:40.236Z,16.205139
2023-05-14T09:55:48.879Z,16.023865
2023-05-14T09:56:58.557Z,16.054077
2023-05-14T09:58:08.211Z,15.913086
2023-05-14T09:59:16.852Z,15.973511
2023-05-14T10:00:26.619Z,15.943298
2023-05-14T10:01:36.194Z,15.913086
2023-05-14T10:02:44.828Z,16.044006
2023-05-14T10:03:54.524Z,16.134644
2023-05-14T10:05:03.185Z,16.08429
2023-05-14T10:06:12.898Z,16.08429
2023-05-14T10:07:22.553Z,16.195068
2023-05-14T10:08:31.226Z,16.195068
2023-05-14T10:09:40.875Z,16.235352
2023-05-14T10:10:49.593Z,16.195068
2023-05-14T10:11:57.260Z,16.174927
2023-05-14T10:13:06.957Z,16.044006
2023-05-14T10:14:14.650Z,15.83252
2023-05-14T10:15:24.352Z,15.84259
2023-05-14T10:16:33.088Z,15.862732
2023-05-14T10:17:41.733Z,15.762024
2023-05-14T10:18:51.398Z,15.751953
2023-05-14T10:20:01.083Z,15.762024
2023-05-14T10:21:09.797Z,15.681458
2023-05-14T10:22:19.470Z,15.701599
2023-05-14T10:23:29.134Z,15.862732
2023-05-14T10:24:38.831Z,15.973511
2023-05-14T10:25:48.639Z,15.973511
2023-05-14T10:26:57.364Z,15.953369
2023-05-14T10:28:07.066Z,16.134644
2023-05-14T10:29:16.752Z,16.124573
2023-05-14T10:30:26.784Z,15.983582
2023-05-14T10:31:36.275Z,16.08429
2023-05-14T10:32:44.950Z,16.205139
2023-05-14T10:33:54.640Z,16.305847
2023-05-14T10:35:04.335Z,16.356201
2023-05-14T10:36:12.027Z,16.275635
2023-05-14T10:37:21.689Z,16.235352
2023-05-14T10:38:30.400Z,16.104431
2023-05-14T10:39:39.106Z,16.164856
2023-05-14T10:40:48.802Z,16.154785
2023-05-14T10:41:58.450Z,16.134644
2023-05-14T10:43:07.118Z,16.134644
2023-05-14T10:44:16.860Z,15.973511
2023-05-14T10:45:26.533Z,16.013794
2023-05-14T10:46:36.215Z,16.09436
2023-05-14T10:47:45.984Z,16.08429
2023-05-14T10:48:55.546Z,16.124573
2023-05-14T10:50:05.216Z,16.09436
2023-05-14T10:51:13.957Z,16.003723
2023-05-14T10:52:23.566Z,16.104431
2023-05-14T10:53:33.268Z,16.054077
2023-05-14T10:54:41.906Z,16.134644
2023-05-14T10:55:51.627Z,16.154785
2023-05-14T10:57:01.240Z,16.134644
2023-05-14T10:58:09.934Z,15.973511
2023-05-14T10:59:19.581Z,16.08429
2023-05-14T11:00:27.234Z,16.104431
2023-05-14T11:01:36.933Z,16.154785
2023-05-14T11:02:46.634Z,16.124573
2023-05-14T11:03:55.342Z,16.195068
2023-05-14T11:05:04.987Z,15.862732
2023-05-14T11:06:14.653Z,15.923157
2023-05-14T11:07:24.487Z,16.08429
2023-05-14T11:08:33.158Z,16.134644
2023-05-14T11:09:41.802Z,16.124573
2023-05-14T11:10:51.452Z,16.154785
2023-05-14T11:12:00.227Z,16.305847
2023-05-14T11:13:08.874Z,16.235352
2023-05-14T11:14:18.552Z,16.406555
2023-05-14T11:15:26.235Z,16.376343
2023-05-14T11:16:35.993Z,16.356201
2023-05-14T11:17:44.755Z,16.406555
2023-05-14T11:18:53.359Z,16.315918
2023-05-14T11:20:03.013Z,16.507263
2023-05-14T11:21:11.758Z,16.46698
2023-05-14T11:22:21.382Z,16.748962
2023-05-14T11:23:31.062Z,16.869812
2023-05-14T11:24:39.763Z,17.111511
2023-05-14T11:25:49.458Z,17.34314
2023-05-14T11:26:59.093Z,17.393494
2023-05-14T11:28:07.767Z,17.756042
2023-05-14T11:29:17.475Z,17.756042
2023-05-14T11:30:26.257Z,17.786255
2023-05-14T11:31:35.858Z,17.826538
2023-05-14T11:32:45.569Z,17.826538
2023-05-14T11:33:55.207Z,17.997742
2023-05-14T11:35:04.904Z,17.997742
2023-05-14T11:36:14.602Z,18.027954
2023-05-14T11:37:23.352Z,18.038025
2023-05-14T11:38:33.051Z,18.048096
2023-05-14T11:39:41.785Z,18.370361
2023-05-14T11:40:51.477Z,18.591919
2023-05-14T11:42:00.140Z,18.843689
2023-05-14T11:43:08.834Z,18.883972
2023-05-14T11:44:18.533Z,18.773193
2023-05-14T11:45:27.210Z,18.924255
2023-05-14T11:46:35.968Z,19.075317
2023-05-14T11:47:45.562Z,19.397583
2023-05-14T11:48:54.318Z,19.548645
2023-05-14T11:50:03.966Z,19.538574
2023-05-14T11:51:13.611Z,20.032043
2023-05-14T11:52:22.358Z,20.646362
2023-05-14T11:53:32.007Z,21.25061
2023-05-14T11:54:40.706Z,21.723938
2023-05-14T11:55:49.349Z,22.24762
2023-05-14T11:56:59.033Z,22.650452
2023-05-14T11:58:06.697Z,22.992859
2023-05-14T11:59:15.374Z,23.083496
2023-05-14T12:00:25.255Z,22.197266
2023-05-14T12:01:33.739Z,22.106628
2023-05-14T12:02:42.515Z,21.331177
2023-05-14T12:03:52.308Z,21.361389
2023-05-14T12:04:59.794Z,21.331177
2023-05-14T12:06:09.464Z,21.290894
2023-05-14T12:07:18.161Z,21.300964
2023-05-14T12:08:26.876Z,21.180115
2023-05-14T12:09:36.525Z,21.220398
2023-05-14T12:10:46.174Z,21.109619
2023-05-14T12:11:55.862Z,21.11969
2023-05-14T12:13:04.535Z,21.210327
2023-05-14T12:14:14.250Z,21.290894
2023-05-14T12:15:23.888Z,21.663513
2023-05-14T12:16:35.525Z,21.824646
2023-05-14T12:17:42.318Z,22.287903
2023-05-14T12:18:51.939Z,23.13385
2023-05-14T12:20:00.575Z,23.989868
2023-05-14T12:21:10.225Z,24.181213
2023-05-14T12:22:18.048Z,24.352417
2023-05-14T12:23:27.707Z,24.704895
2023-05-14T12:24:37.409Z,24.382629
2023-05-14T12:25:47.049Z,23.657532
2023-05-14T12:26:56.721Z,23.707886
2023-05-14T12:28:06.384Z,23.677673
2023-05-14T12:29:15.079Z,23.284912
2023-05-14T12:30:24.726Z,23.023071
2023-05-14T12:31:34.481Z,23.174133
2023-05-14T12:32:43.134Z,22.841797
2023-05-14T12:33:52.802Z,22.469177
2023-05-14T12:35:01.458Z,22.731018
2023-05-14T12:36:21.018Z,23.284912
2023-05-14T12:37:21.795Z,23.335266
2023-05-14T12:38:30.437Z,23.75824
2023-05-14T12:39:39.090Z,23.959656
2023-05-14T12:40:46.786Z,23.919373
2023-05-14T12:41:56.430Z,23.657532
2023-05-14T12:43:06.061Z,23.778381
2023-05-14T12:44:15.725Z,23.284912
2023-05-14T12:45:24.609Z,23.123779
2023-05-14T12:46:33.119Z,22.88208
2023-05-14T12:47:40.841Z,23.033142
2023-05-14T12:48:52.458Z,23.305054
2023-05-14T12:50:00.100Z,23.768311
2023-05-14T12:51:09.809Z,23.315125
2023-05-14T12:52:25.914Z,23.50647
2023-05-14T12:53:30.082Z,23.798523
2023-05-14T12:54:40.965Z,24.050293
2023-05-14T12:55:49.459Z,24.725037
2023-05-14T12:56:58.065Z,24.876099
2023-05-14T12:58:07.717Z,24.845886
2023-05-14T12:59:17.425Z,24.14093
2023-05-14T13:00:27.120Z,24.352417
2023-05-14T13:01:36.850Z,24.584045
2023-05-14T13:02:45.425Z,25.027161
2023-05-14T13:03:55.118Z,25.359497
2023-05-14T13:05:04.799Z,24.886169
2023-05-14T13:06:14.453Z,25.349426
2023-05-14T13:07:24.157Z,25.913391
2023-05-14T13:08:32.803Z,25.873108
2023-05-14T13:09:42.489Z,25.621338
2023-05-14T13:10:51.182Z,26.306152
2023-05-14T13:11:59.843Z,26.477356